createdAt,value
2018-10-18T00:00:10.135Z,10.50
2018-10-18T00:02:38.896Z,10.40
2018-10-18T00:05:08.974Z,10.30
2018-10-18T00:07:37.834Z,10.10
2018-10-18T00:10:08.067Z,10.00
2018-10-18T00:12:36.728Z,10.00
2018-10-18T00:15:06.689Z,10.00
2018-10-18T00:17:40.616Z,9.90
2018-10-18T00:20:09.523Z,9.90
2018-10-18T00:22:38.154Z,9.90
2018-10-18T00:25:07.093Z,9.90
2018-10-18T00:27:36.121Z,9.90
2018-10-18T00:30:06.523Z,10.00
2018-10-18T00:32:35.245Z,10.00
2018-10-18T00:35:04.088Z,10.00
2018-10-18T00:37:33.022Z,10.00
2018-10-18T00:40:01.767Z,10.00
2018-10-18T00:42:30.424Z,10.00
2018-10-18T00:44:59.098Z,10.00
2018-10-18T00:47:27.781Z,10.00
2018-10-18T00:49:56.599Z,10.00
2018-10-18T00:52:25.308Z,10.00
2018-10-18T00:54:54.106Z,9.90
2018-10-18T00:57:22.837Z,9.80
2018-10-18T00:59:51.541Z,9.80
2018-10-18T01:02:20.316Z,9.60
2018-10-18T01:04:49.025Z,9.60
2018-10-18T01:07:17.751Z,9.50
2018-10-18T01:09:46.478Z,9.50
2018-10-18T01:12:15.277Z,9.50
2018-10-18T01:14:43.880Z,9.60
2018-10-18T01:17:12.834Z,9.60
2018-10-18T01:19:41.570Z,9.60
2018-10-18T01:22:10.500Z,9.60
2018-10-18T01:24:39.239Z,9.50
2018-10-18T01:27:08.398Z,9.60
2018-10-18T01:29:38.062Z,9.60
2018-10-18T01:32:07.363Z,9.60
2018-10-18T01:34:36.080Z,9.60
2018-10-18T01:37:06.315Z,9.60
2018-10-18T01:39:35.066Z,9.60
2018-10-18T01:42:03.968Z,9.60
2018-10-18T01:44:32.659Z,9.70
2018-10-18T01:47:01.333Z,9.60
2018-10-18T01:49:30.014Z,9.60
2018-10-18T01:51:58.687Z,9.50
2018-10-18T01:54:27.430Z,9.50
2018-10-18T01:56:56.192Z,9.40
2018-10-18T01:59:25.139Z,9.40
2018-10-18T02:01:53.853Z,9.40
2018-10-18T02:04:22.595Z,9.30
2018-10-18T02:06:51.345Z,9.30
2018-10-18T02:09:20.059Z,9.30
2018-10-18T02:11:49.088Z,9.40
2018-10-18T02:14:17.696Z,9.40
2018-10-18T02:16:46.423Z,9.40
2018-10-18T02:19:15.381Z,9.50
2018-10-18T02:21:43.958Z,9.50
2018-10-18T02:24:12.707Z,9.50
2018-10-18T02:26:41.414Z,9.50
2018-10-18T02:29:10.348Z,9.40
2018-10-18T02:31:39.082Z,9.30
2018-10-18T02:34:08.041Z,9.30
2018-10-18T02:36:36.835Z,9.20
2018-10-18T02:39:07.609Z,9.20
2018-10-18T02:41:36.521Z,9.20
2018-10-18T02:44:05.442Z,9.20
2018-10-18T02:46:34.168Z,9.20
2018-10-18T02:49:02.912Z,9.20
2018-10-18T02:51:31.680Z,9.20
2018-10-18T02:54:00.840Z,9.20
2018-10-18T02:56:29.564Z,9.30
2018-10-18T02:58:58.380Z,9.30
2018-10-18T03:01:27.660Z,9.20
2018-10-18T03:03:56.569Z,9.20
2018-10-18T03:06:25.279Z,9.10
2018-10-18T03:08:53.980Z,9.00
2018-10-18T03:11:22.870Z,9.00
2018-10-18T03:13:51.555Z,8.90
2018-10-18T03:16:20.315Z,8.90
2018-10-18T03:18:49.030Z,8.80
2018-10-18T03:21:17.759Z,8.80
2018-10-18T03:23:46.470Z,8.80
2018-10-18T03:26:15.397Z,8.90
2018-10-18T03:28:44.365Z,9.00
2018-10-18T03:31:13.134Z,9.00
2018-10-18T03:33:41.907Z,9.10
2018-10-18T03:36:13.081Z,9.10
2018-10-18T03:38:41.727Z,9.10
2018-10-18T03:41:10.626Z,9.10
2018-10-18T03:43:48.110Z,9.10
2018-10-18T03:46:16.797Z,9.00
2018-10-18T03:48:46.782Z,9.00
2018-10-18T03:51:15.535Z,8.90
2018-10-18T03:53:44.229Z,8.80
2018-10-18T03:56:12.964Z,8.80
2018-10-18T03:58:41.734Z,8.70
2018-10-18T04:01:10.405Z,8.70
2018-10-18T04:03:39.044Z,8.70
2018-10-18T04:06:07.833Z,8.70
2018-10-18T04:08:36.555Z,8.70
2018-10-18T04:11:05.279Z,8.60
2018-10-18T04:13:34.162Z,8.50
2018-10-18T04:16:02.903Z,8.50
2018-10-18T04:18:31.812Z,8.50
2018-10-18T04:21:00.338Z,8.40
2018-10-18T04:23:32.339Z,8.40
2018-10-18T04:26:02.409Z,8.40
2018-10-18T04:28:31.883Z,8.40
2018-10-18T04:31:01.461Z,8.30
2018-10-18T04:33:30.181Z,8.40
2018-10-18T04:35:58.926Z,8.40
2018-10-18T04:38:27.617Z,8.50
2018-10-18T04:41:10.519Z,8.50
2018-10-18T04:43:39.379Z,8.50
2018-10-18T04:46:08.157Z,8.50
2018-10-18T04:48:37.009Z,8.50
2018-10-18T04:51:06.047Z,8.50
2018-10-18T04:53:34.947Z,8.50
2018-10-18T04:56:03.663Z,8.50
2018-10-18T04:58:32.687Z,8.50
2018-10-18T05:01:01.477Z,8.50
2018-10-18T05:03:30.151Z,8.50
2018-10-18T05:06:00.288Z,8.40
2018-10-18T05:08:29.445Z,8.40
2018-10-18T05:10:58.283Z,8.30
2018-10-18T05:13:27.366Z,8.20
2018-10-18T05:15:56.156Z,8.10
2018-10-18T05:18:25.450Z,8.10
2018-10-18T05:20:54.286Z,8.10
2018-10-18T05:23:23.347Z,8.10
2018-10-18T05:25:53.261Z,8.10
2018-10-18T05:28:22.640Z,8.10
2018-10-18T05:30:51.314Z,8.10
2018-10-18T05:33:20.054Z,8.20
2018-10-18T05:35:48.819Z,8.20
2018-10-18T05:38:17.573Z,8.10
2018-10-18T05:40:46.333Z,8.10
2018-10-18T05:43:15.122Z,8.10
2018-10-18T05:45:43.803Z,8.20
2018-10-18T05:48:12.542Z,8.20
2018-10-18T05:50:41.615Z,8.20
2018-10-18T05:53:10.446Z,8.20
2018-10-18T05:55:39.090Z,8.20
2018-10-18T05:58:07.763Z,8.20
2018-10-18T06:00:36.594Z,8.30
2018-10-18T06:03:05.708Z,8.30
2018-10-18T06:05:34.563Z,8.30
2018-10-18T06:08:03.761Z,8.30
2018-10-18T06:10:43.515Z,8.20
2018-10-18T06:13:12.511Z,8.30
2018-10-18T06:15:41.157Z,8.30
2018-10-18T06:18:09.873Z,8.30
2018-10-18T06:20:38.596Z,8.30
2018-10-18T06:23:10.512Z,8.40
2018-10-18T06:25:39.370Z,8.40
2018-10-18T06:28:08.088Z,8.50
2018-10-18T06:30:38.047Z,8.50
2018-10-18T06:33:06.814Z,8.50
2018-10-18T06:35:35.406Z,8.50
2018-10-18T06:38:04.178Z,8.50
2018-10-18T06:40:32.838Z,8.60
2018-10-18T06:43:01.668Z,8.60
2018-10-18T06:45:30.434Z,8.60
2018-10-18T06:47:59.301Z,8.60
2018-10-18T06:50:27.891Z,8.60
2018-10-18T06:52:56.577Z,8.60
2018-10-18T06:55:25.371Z,8.50
2018-10-18T06:57:54.202Z,8.60
2018-10-18T07:00:24.291Z,8.60
2018-10-18T07:02:53.511Z,8.60
2018-10-18T07:05:24.402Z,8.70
2018-10-18T07:07:53.182Z,8.80
2018-10-18T07:10:21.911Z,8.90
2018-10-18T07:12:50.653Z,9.10
2018-10-18T07:15:19.851Z,9.20
2018-10-18T07:17:49.140Z,9.30
2018-10-18T07:20:18.142Z,9.50
2018-10-18T07:22:47.118Z,9.60
2018-10-18T07:25:16.840Z,9.70
2018-10-18T07:27:52.012Z,9.80
2018-10-18T07:30:20.970Z,9.90
2018-10-18T07:32:49.686Z,10.00
2018-10-18T07:35:18.610Z,10.10
2018-10-18T07:37:47.334Z,10.30
2018-10-18T07:40:16.804Z,10.40
2018-10-18T07:42:45.972Z,10.50
2018-10-18T07:45:15.971Z,10.60
2018-10-18T07:47:46.008Z,10.70
2018-10-18T07:50:15.151Z,10.90
2018-10-18T07:52:45.342Z,11.00
2018-10-18T07:55:14.707Z,11.20
2018-10-18T07:57:44.116Z,11.30
2018-10-18T08:00:14.286Z,11.50
2018-10-18T08:02:43.766Z,11.70
2018-10-18T08:05:13.305Z,11.90
2018-10-18T08:07:42.048Z,12.20
2018-10-18T08:10:15.773Z,12.50
2018-10-18T08:12:44.500Z,12.70
2018-10-18T08:15:14.511Z,12.90
2018-10-18T08:17:44.242Z,13.10
2018-10-18T08:20:13.610Z,13.30
2018-10-18T08:22:44.249Z,13.50
2018-10-18T08:25:13.275Z,13.70
2018-10-18T08:27:41.978Z,14.00
2018-10-18T08:30:12.483Z,14.20
2018-10-18T08:32:43.746Z,14.60
2018-10-18T08:35:13.141Z,14.80
2018-10-18T08:37:41.956Z,15.10
2018-10-18T08:40:10.586Z,15.20
2018-10-18T08:42:39.402Z,15.30
2018-10-18T08:45:09.859Z,15.50
2018-10-18T08:47:38.671Z,15.70
2018-10-18T08:50:09.573Z,15.90
2018-10-18T08:52:38.893Z,16.10
2018-10-18T08:55:09.920Z,16.30
2018-10-18T08:57:38.639Z,16.50
2018-10-18T09:00:08.345Z,16.80
2018-10-18T09:02:37.066Z,16.90
2018-10-18T09:05:07.410Z,17.00
2018-10-18T09:07:36.632Z,17.30
2018-10-18T09:10:07.217Z,17.60
2018-10-18T09:12:36.542Z,18.00
2018-10-18T09:15:06.623Z,18.30
2018-10-18T09:17:35.585Z,18.60
2018-10-18T09:20:04.816Z,18.90
2018-10-18T09:22:33.883Z,19.10
2018-10-18T09:25:04.490Z,19.20
2018-10-18T09:27:34.050Z,19.30
2018-10-18T09:30:09.882Z,19.50
2018-10-18T09:32:38.952Z,19.50
2018-10-18T09:35:08.752Z,19.40
2018-10-18T09:37:37.971Z,19.40
2018-10-18T09:40:09.105Z,19.60
2018-10-18T09:42:38.355Z,19.70
2018-10-18T09:45:09.770Z,19.80
2018-10-18T09:47:38.642Z,19.80
2018-10-18T09:50:07.798Z,20.10
2018-10-18T09:52:37.339Z,20.40
2018-10-18T09:55:07.443Z,20.60
2018-10-18T09:57:36.367Z,20.80
2018-10-18T10:00:05.293Z,21.10
2018-10-18T10:02:41.114Z,21.20
2018-10-18T10:05:13.389Z,21.40
2018-10-18T10:07:46.219Z,21.70
2018-10-18T10:10:15.139Z,22.10
2018-10-18T10:12:44.639Z,22.30
2018-10-18T10:15:14.050Z,22.30
2018-10-18T10:17:43.263Z,22.30
2018-10-18T10:20:11.976Z,22.30
2018-10-18T10:22:40.708Z,22.40
2018-10-18T10:25:09.616Z,22.70
2018-10-18T10:27:38.701Z,22.90
2018-10-18T10:30:07.442Z,23.10
2018-10-18T10:32:35.959Z,23.30
2018-10-18T10:35:05.413Z,23.60
2018-10-18T10:37:34.035Z,23.80
2018-10-18T10:40:05.320Z,23.90
2018-10-18T10:42:35.600Z,24.10
2018-10-18T10:45:04.524Z,24.30
2018-10-18T10:47:33.191Z,24.50
2018-10-18T10:50:01.868Z,24.80
2018-10-18T10:52:30.570Z,24.70
2018-10-18T10:54:59.235Z,24.60
2018-10-18T10:57:27.935Z,24.50
2018-10-18T10:59:56.691Z,24.50
2018-10-18T11:02:27.563Z,24.90
2018-10-18T11:04:56.365Z,25.20
2018-10-18T11:07:29.631Z,25.60
2018-10-18T11:09:58.122Z,25.90
2018-10-18T11:12:26.754Z,26.30
2018-10-18T11:14:58.811Z,26.60
2018-10-18T11:17:27.453Z,27.00
2018-10-18T11:20:00.021Z,27.00
2018-10-18T11:22:28.766Z,27.20
2018-10-18T11:24:57.474Z,27.50
2018-10-18T11:27:26.396Z,27.60
2018-10-18T11:29:56.159Z,27.70
2018-10-18T11:32:25.042Z,27.90
2018-10-18T11:34:53.830Z,28.00
2018-10-18T11:37:22.677Z,27.90
2018-10-18T11:39:52.023Z,27.80
2018-10-18T11:42:20.757Z,28.00
2018-10-18T11:44:59.820Z,28.20
2018-10-18T11:47:29.615Z,28.30
2018-10-18T11:49:58.320Z,28.40
2018-10-18T11:52:27.336Z,28.50
2018-10-18T11:54:56.503Z,28.70
2018-10-18T11:57:39.421Z,28.70
2018-10-18T12:00:10.811Z,28.90
2018-10-18T12:02:40.516Z,29.00
2018-10-18T12:05:09.203Z,28.60
2018-10-18T12:07:48.426Z,28.30
2018-10-18T12:10:17.228Z,28.40
2018-10-18T12:12:48.160Z,28.60
2018-10-18T12:15:16.801Z,28.60
2018-10-18T12:17:45.623Z,28.40
2018-10-18T12:20:15.772Z,28.40
2018-10-18T12:22:44.770Z,28.10
2018-10-18T12:25:14.617Z,28.10
2018-10-18T12:27:44.852Z,28.40
2018-10-18T12:30:14.417Z,28.60
2018-10-18T12:32:43.254Z,28.70
2018-10-18T12:35:12.214Z,28.90
2018-10-18T12:37:40.862Z,29.20
2018-10-18T12:40:10.158Z,29.20
2018-10-18T12:42:41.685Z,29.40
2018-10-18T12:45:11.570Z,29.50
2018-10-18T12:47:40.615Z,29.80
2018-10-18T12:50:09.599Z,29.90
2018-10-18T12:52:38.346Z,29.90
2018-10-18T12:55:07.088Z,30.00
2018-10-18T12:57:36.122Z,29.90
2018-10-18T13:00:05.560Z,29.90
2018-10-18T13:02:34.545Z,29.50
2018-10-18T13:05:10.706Z,29.40
2018-10-18T13:07:40.896Z,29.40
2018-10-18T13:10:11.678Z,29.30
2018-10-18T13:12:41.842Z,29.50
2018-10-18T13:15:11.704Z,29.60
2018-10-18T13:17:40.550Z,29.60
2018-10-18T13:20:10.476Z,29.50
2018-10-18T13:22:40.849Z,29.50
2018-10-18T13:25:11.075Z,29.30
2018-10-18T13:27:39.835Z,29.30
2018-10-18T13:30:09.877Z,29.50
2018-10-18T13:32:39.386Z,29.60
2018-10-18T13:35:09.265Z,29.60
2018-10-18T13:37:39.524Z,29.80
2018-10-18T13:40:09.107Z,29.80
2018-10-18T13:42:38.461Z,29.90
2018-10-18T13:45:07.664Z,30.10
2018-10-18T13:47:36.817Z,30.30
2018-10-18T13:50:06.322Z,30.50
2018-10-18T13:52:35.327Z,30.80
2018-10-18T13:55:04.142Z,31.10
2018-10-18T13:57:32.867Z,30.90
2018-10-18T14:00:23.896Z,30.90
2018-10-18T14:02:54.072Z,30.90
2018-10-18T14:05:23.294Z,31.10
2018-10-18T14:07:53.255Z,31.40
2018-10-18T14:10:22.107Z,31.70
2018-10-18T14:12:52.445Z,32.00
2018-10-18T14:15:21.272Z,32.00
2018-10-18T14:17:50.955Z,32.00
2018-10-18T14:20:19.993Z,32.20
2018-10-18T14:22:49.301Z,32.30
2018-10-18T14:25:18.175Z,32.40
2018-10-18T14:27:47.238Z,32.50
2018-10-18T14:30:16.129Z,32.60
2018-10-18T14:32:44.839Z,32.60
2018-10-18T14:35:13.764Z,32.70
2018-10-18T14:37:42.511Z,33.10
2018-10-18T14:40:12.602Z,33.80
2018-10-18T14:42:41.970Z,34.20
2018-10-18T14:45:10.987Z,34.70
2018-10-18T14:47:39.876Z,34.90
2018-10-18T14:50:10.981Z,34.80
2018-10-18T14:52:39.713Z,34.80
2018-10-18T14:55:09.186Z,34.80
2018-10-18T14:57:38.645Z,34.50
2018-10-18T15:00:09.555Z,34.20
2018-10-18T15:02:38.266Z,33.90
2018-10-18T15:05:09.758Z,33.70
2018-10-18T15:07:39.181Z,33.10
2018-10-18T15:10:11.924Z,32.00
2018-10-18T15:12:42.495Z,30.90
2018-10-18T15:15:15.251Z,30.30
2018-10-18T15:17:45.963Z,30.20
2018-10-18T15:20:19.080Z,30.40
2018-10-18T15:22:52.724Z,30.70
2018-10-18T15:25:26.142Z,31.10
2018-10-18T15:27:56.024Z,31.20
2018-10-18T15:30:25.220Z,31.10
2018-10-18T15:32:54.196Z,31.30
2018-10-18T15:35:23.892Z,31.10
2018-10-18T15:37:52.625Z,30.60
2018-10-18T15:40:24.002Z,29.30
2018-10-18T15:42:54.684Z,28.00
2018-10-18T15:45:26.925Z,26.80
2018-10-18T15:48:02.068Z,25.70
2018-10-18T15:50:32.853Z,24.90
2018-10-18T15:53:04.529Z,24.10
2018-10-18T15:55:35.228Z,23.50
2018-10-18T15:58:05.757Z,23.00
2018-10-18T16:00:36.825Z,22.70
2018-10-18T16:03:07.447Z,22.40
2018-10-18T16:05:37.530Z,22.20
2018-10-18T16:08:08.862Z,22.00
2018-10-18T16:10:39.055Z,21.90
2018-10-18T16:13:07.788Z,21.60
2018-10-18T16:15:36.486Z,21.50
2018-10-18T16:18:05.383Z,21.20
2018-10-18T16:20:34.162Z,21.10
2018-10-18T16:23:02.998Z,20.90
2018-10-18T16:25:31.688Z,20.80
2018-10-18T16:28:00.463Z,20.70
2018-10-18T16:30:29.857Z,20.60
2018-10-18T16:32:58.550Z,20.60
2018-10-18T16:35:27.370Z,20.40
2018-10-18T16:37:56.060Z,20.30
2018-10-18T16:40:24.944Z,20.20
2018-10-18T16:42:53.595Z,20.00
2018-10-18T16:45:22.270Z,19.90
2018-10-18T16:47:51.310Z,19.80
2018-10-18T16:50:20.034Z,19.60
2018-10-18T16:52:48.691Z,19.50
2018-10-18T16:55:17.464Z,19.40
2018-10-18T16:57:46.262Z,19.30
2018-10-18T17:00:15.139Z,19.00
2018-10-18T17:02:43.671Z,18.80
2018-10-18T17:05:12.423Z,18.60
2018-10-18T17:07:41.203Z,18.50
2018-10-18T17:10:10.055Z,18.40
2018-10-18T17:12:39.507Z,18.30
2018-10-18T17:15:08.579Z,18.30
2018-10-18T17:17:37.815Z,18.20
2018-10-18T17:20:08.692Z,18.00
2018-10-18T17:22:37.889Z,17.80
2018-10-18T17:25:07.632Z,17.70
2018-10-18T17:27:37.071Z,17.50
2018-10-18T17:30:06.896Z,17.40
2018-10-18T17:32:36.793Z,17.30
2018-10-18T17:35:07.669Z,17.20
2018-10-18T17:37:36.366Z,17.10
2018-10-18T17:40:05.710Z,17.00
2018-10-18T17:42:34.386Z,17.00
2018-10-18T17:45:03.927Z,16.90
2018-10-18T17:47:32.674Z,16.80
2018-10-18T17:50:01.383Z,16.70
2018-10-18T17:52:30.190Z,16.60
2018-10-18T17:54:59.494Z,16.50
2018-10-18T17:57:28.283Z,16.50
2018-10-18T17:59:57.355Z,16.50
2018-10-18T18:02:27.312Z,16.40
2018-10-18T18:04:57.134Z,16.30
2018-10-18T18:07:26.026Z,16.20
2018-10-18T18:09:54.740Z,16.10
2018-10-18T18:12:23.505Z,16.00
2018-10-18T18:14:52.502Z,16.00
2018-10-18T18:17:21.617Z,16.00
2018-10-18T18:19:50.356Z,15.90
2018-10-18T18:22:19.080Z,15.80
2018-10-18T18:24:47.853Z,15.60
2018-10-18T18:27:16.647Z,15.50
2018-10-18T18:29:47.273Z,15.40
2018-10-18T18:32:16.139Z,15.40
2018-10-18T18:34:44.975Z,15.30
2018-10-18T18:37:14.080Z,15.30
2018-10-18T18:39:42.980Z,15.20
2018-10-18T18:42:11.788Z,15.20
2018-10-18T18:44:41.535Z,15.10
2018-10-18T18:47:10.667Z,15.10
2018-10-18T18:49:39.851Z,15.10
2018-10-18T18:52:08.616Z,14.90
2018-10-18T18:54:37.746Z,14.80
2018-10-18T18:57:06.780Z,14.50
2018-10-18T18:59:37.475Z,14.20
2018-10-18T19:02:08.922Z,14.10
2018-10-18T19:04:38.416Z,14.10
2018-10-18T19:07:07.590Z,14.10
2018-10-18T19:09:38.315Z,14.20
2018-10-18T19:12:07.809Z,14.20
2018-10-18T19:14:36.625Z,14.20
2018-10-18T19:17:06.446Z,14.20
2018-10-18T19:19:36.361Z,14.20
2018-10-18T19:22:13.546Z,14.10
2018-10-18T19:24:44.521Z,14.10
2018-10-18T19:27:13.288Z,14.00
2018-10-18T19:29:42.067Z,14.00
2018-10-18T19:32:11.900Z,13.90
2018-10-18T19:34:40.802Z,13.90
2018-10-18T19:37:09.555Z,13.90
2018-10-18T19:39:38.684Z,13.90
2018-10-18T19:42:07.530Z,13.80
2018-10-18T19:44:37.243Z,13.70
2018-10-18T19:47:05.998Z,13.60
2018-10-18T19:49:34.755Z,13.60
2018-10-18T19:52:03.615Z,13.60
2018-10-18T19:54:32.321Z,13.40
2018-10-18T19:57:01.051Z,13.40
2018-10-18T19:59:29.789Z,13.40
2018-10-18T20:01:58.556Z,13.30
2018-10-18T20:04:27.409Z,13.20
2018-10-18T20:06:56.515Z,13.10
2018-10-18T20:09:25.258Z,13.00
2018-10-18T20:11:54.077Z,13.00
2018-10-18T20:14:22.963Z,13.00
2018-10-18T20:16:52.936Z,12.90
2018-10-18T20:19:22.001Z,12.90
2018-10-18T20:21:50.817Z,12.80
2018-10-18T20:24:20.285Z,12.80
2018-10-18T20:26:49.377Z,12.80
2018-10-18T20:29:18.058Z,12.70
2018-10-18T20:31:46.883Z,12.70
2018-10-18T20:34:15.598Z,12.60
2018-10-18T20:36:44.666Z,12.60
2018-10-18T20:39:14.006Z,12.60
2018-10-18T20:41:42.724Z,12.50
2018-10-18T20:44:11.420Z,12.50
2018-10-18T20:46:41.166Z,12.40
2018-10-18T20:49:10.335Z,12.40
2018-10-18T20:51:39.208Z,12.40
2018-10-18T20:54:07.974Z,12.30
2018-10-18T20:56:36.587Z,12.20
2018-10-18T20:59:05.281Z,12.20
2018-10-18T21:01:33.895Z,12.10
2018-10-18T21:04:02.623Z,12.00
2018-10-18T21:06:31.690Z,12.00
2018-10-18T21:09:00.367Z,12.00
2018-10-18T21:11:29.111Z,11.90
2018-10-18T21:13:57.832Z,11.80
2018-10-18T21:16:26.577Z,11.70
2018-10-18T21:18:55.286Z,11.70
2018-10-18T21:21:24.149Z,11.60
2018-10-18T21:23:53.310Z,11.60
2018-10-18T21:26:22.090Z,11.50
2018-10-18T21:28:50.865Z,11.50
2018-10-18T21:31:19.541Z,11.40
2018-10-18T21:33:48.407Z,11.40
2018-10-18T21:36:17.116Z,11.30
2018-10-18T21:38:45.948Z,11.20
2018-10-18T21:41:14.799Z,11.10
2018-10-18T21:43:43.457Z,11.10
2018-10-18T21:46:12.135Z,11.10
2018-10-18T21:48:41.209Z,11.10
2018-10-18T21:51:10.150Z,11.10
2018-10-18T21:53:38.814Z,11.10
2018-10-18T21:56:07.546Z,11.10
2018-10-18T21:58:36.272Z,11.00
2018-10-18T22:01:05.425Z,11.00
2018-10-18T22:03:34.060Z,11.00
2018-10-18T22:06:02.771Z,10.90
2018-10-18T22:08:31.482Z,10.90
2018-10-18T22:11:00.163Z,10.80
2018-10-18T22:13:28.952Z,10.80
2018-10-18T22:15:57.624Z,10.70
2018-10-18T22:18:26.374Z,10.70
2018-10-18T22:20:55.092Z,10.60
2018-10-18T22:23:23.793Z,10.70
2018-10-18T22:25:52.515Z,10.70
2018-10-18T22:28:21.220Z,10.60
2018-10-18T22:30:50.232Z,10.50
2018-10-18T22:33:18.936Z,10.50
2018-10-18T22:35:47.851Z,10.50
2018-10-18T22:38:16.558Z,10.40
2018-10-18T22:40:45.242Z,10.30
2018-10-18T22:43:13.940Z,10.20
2018-10-18T22:45:46.743Z,10.20
2018-10-18T22:48:15.563Z,10.20
2018-10-18T22:50:44.837Z,10.10
2018-10-18T22:53:14.118Z,10.00
2018-10-18T22:55:42.760Z,9.90
2018-10-18T22:58:11.470Z,9.90
2018-10-18T23:00:45.934Z,9.80
2018-10-18T23:03:14.885Z,9.70
2018-10-18T23:05:43.493Z,9.70
2018-10-18T23:08:14.421Z,9.60
2018-10-18T23:10:43.153Z,9.60
2018-10-18T23:13:11.823Z,9.70
2018-10-18T23:15:40.498Z,9.70
2018-10-18T23:18:10.234Z,9.80
2018-10-18T23:20:40.070Z,9.70
2018-10-18T23:23:09.257Z,9.60
2018-10-18T23:25:38.139Z,9.50
2018-10-18T23:28:06.934Z,9.40
2018-10-18T23:30:35.583Z,9.40
2018-10-18T23:33:04.392Z,9.40
2018-10-18T23:35:33.109Z,9.30
2018-10-18T23:38:01.884Z,9.30
2018-10-18T23:40:30.736Z,9.40
2018-10-18T23:42:59.467Z,9.30
2018-10-18T23:45:28.105Z,9.20
2018-10-18T23:47:56.833Z,9.20
2018-10-18T23:50:25.522Z,9.20
2018-10-18T23:52:54.189Z,9.20
2018-10-18T23:55:22.955Z,9.20
2018-10-18T23:57:51.750Z,9.20
